Time;durP1;ratioP1;P1;durP2;ratioP2;P2;SDS_P1;SDS_P2;PMS_P1;PMS_P2;Temp;Humidity;BMP_temperature;BMP_pressure;BME280_temperature;BME280_humidity;BME280_pressure;Samples;Min_cycle;Max_cycle;Signal;HPM_P1;HPM_P2
2024/01/14 00:00:34;;;;;;;65.75;27.42;;;;;;;;;;6079431;23;20041;-83
2024/01/14 00:03:01;;;;;;;72.03;28.48;;;;;;;;;;6078971;23;20033;-83
2024/01/14 00:05:27;;;;;;;71.13;28.23;;;;;;;;;;6076689;23;20030;-82
2024/01/14 00:07:54;;;;;;;70.55;29.80;;;;;;;;;;6077673;23;20023;-82
2024/01/14 00:10:22;;;;;;;71.15;27.27;;;;;;;;;;6079688;23;20459;-82
2024/01/14 00:12:48;;;;;;;70.28;27.92;;;;;;;;;;6079934;23;20027;-82
2024/01/14 00:15:17;;;;;;;63.72;28.10;;;;;;;;;;6079666;23;20030;-83
2024/01/14 00:17:45;;;;;;;65.32;28.25;;;;;;;;;;6081069;23;20026;-82
2024/01/14 00:20:12;;;;;;;64.10;28.48;;;;;;;;;;6078862;23;20026;-81
2024/01/14 00:22:38;;;;;;;65.10;29.60;;;;;;;;;;6078248;23;20051;-82
2024/01/14 00:25:05;;;;;;;68.57;28.83;;;;;;;;;;6076950;23;20027;-80
2024/01/14 00:27:35;;;;;;;64.80;29.05;;;;;;;;;;6078196;23;20023;-80
2024/01/14 00:30:02;;;;;;;64.25;28.00;;;;;;;;;;6078818;23;20026;-81
2024/01/14 00:32:28;;;;;;;66.95;27.85;;;;;;;;;;6080185;23;20027;-83
2024/01/14 00:34:54;;;;;;;62.38;26.50;;;;;;;;;;6076110;23;20126;-81
2024/01/14 00:37:21;;;;;;;66.78;28.02;;;;;;;;;;6078391;23;20027;-80
2024/01/14 00:39:48;;;;;;;65.95;28.27;;;;;;;;;;6080696;23;20050;-80
2024/01/14 00:42:14;;;;;;;68.00;27.92;;;;;;;;;;6081314;23;20079;-81
2024/01/14 00:44:43;;;;;;;66.93;28.23;;;;;;;;;;6074647;23;20030;-82
2024/01/14 00:47:09;;;;;;;64.50;28.92;;;;;;;;;;6075547;23;20074;-80
2024/01/14 00:49:36;;;;;;;67.43;27.42;;;;;;;;;;6077159;23;20161;-81
2024/01/14 00:52:02;;;;;;;62.75;26.30;;;;;;;;;;6075640;23;20091;-82
2024/01/14 00:54:28;;;;;;;68.68;27.65;;;;;;;;;;6075277;23;20070;-81
2024/01/14 00:56:56;;;;;;;64.97;26.90;;;;;;;;;;6076435;23;20027;-81
2024/01/14 00:59:23;;;;;;;67.82;26.27;;;;;;;;;;6076938;23;20027;-81
2024/01/14 01:01:50;;;;;;;66.43;26.13;;;;;;;;;;6076616;23;20050;-82
2024/01/14 01:04:17;;;;;;;64.70;27.92;;;;;;;;;;6077790;23;20033;-80
2024/01/14 01:06:44;;;;;;;64.80;26.83;;;;;;;;;;6078560;23;20027;-83
2024/01/14 01:09:10;;;;;;;69.72;29.33;;;;;;;;;;6078993;23;20027;-82
2024/01/14 01:11:37;;;;;;;66.03;25.58;;;;;;;;;;6081253;23;20046;-83
2024/01/14 01:14:03;;;;;;;62.92;27.58;;;;;;;;;;6078225;23;20035;-81
2024/01/14 01:16:30;;;;;;;61.78;27.05;;;;;;;;;;6074089;23;20026;-82
2024/01/14 01:18:58;;;;;;;61.55;26.95;;;;;;;;;;6074565;23;20050;-80
2024/01/14 01:21:24;;;;;;;56.92;26.70;;;;;;;;;;6075609;23;20050;-82
2024/01/14 01:23:50;;;;;;;65.32;28.88;;;;;;;;;;6082634;23;20408;-80
2024/01/14 01:26:17;;;;;;;63.25;25.48;;;;;;;;;;6084171;23;20042;-82
2024/01/14 01:28:43;;;;;;;66.90;26.58;;;;;;;;;;6087664;23;20058;-80
2024/01/14 01:31:10;;;;;;;63.85;26.88;;;;;;;;;;6085096;23;20486;-80
2024/01/14 01:33:36;;;;;;;59.88;25.15;;;;;;;;;;6075588;23;20054;-81
2024/01/14 01:36:04;;;;;;;57.63;24.45;;;;;;;;;;6076838;23;20337;-81
2024/01/14 01:38:31;;;;;;;57.55;26.48;;;;;;;;;;6077760;23;20062;-81
2024/01/14 01:40:57;;;;;;;58.78;25.83;;;;;;;;;;6080400;23;20057;-81
2024/01/14 01:43:24;;;;;;;58.92;25.75;;;;;;;;;;6078809;23;20113;-82
2024/01/14 01:45:51;;;;;;;61.38;24.80;;;;;;;;;;6076213;23;20535;-81
2024/01/14 01:48:19;;;;;;;53.95;24.88;;;;;;;;;;6076200;23;20389;-80
2024/01/14 01:50:46;;;;;;;53.65;23.42;;;;;;;;;;6076999;23;20026;-81
2024/01/14 01:53:15;;;;;;;59.47;25.05;;;;;;;;;;6077466;23;20046;-82
2024/01/14 01:55:41;;;;;;;53.33;22.88;;;;;;;;;;6078303;23;20059;-82
2024/01/14 01:58:08;;;;;;;57.72;23.05;;;;;;;;;;6082381;23;20029;-80
2024/01/14 02:00:36;;;;;;;56.40;23.25;;;;;;;;;;6082089;23;20030;-82
2024/01/14 02:03:03;;;;;;;58.47;24.63;;;;;;;;;;6080042;23;20058;-81
2024/01/14 02:05:30;;;;;;;56.25;22.98;;;;;;;;;;6075594;23;20023;-82
2024/01/14 02:07:56;;;;;;;58.28;25.33;;;;;;;;;;6076126;23;20054;-81
2024/01/14 02:10:24;;;;;;;52.28;23.20;;;;;;;;;;6078218;23;20058;-83
2024/01/14 02:12:50;;;;;;;52.80;23.65;;;;;;;;;;6075700;23;20046;-81
2024/01/14 02:15:17;;;;;;;62.10;24.75;;;;;;;;;;6074705;23;20341;-82
2024/01/14 02:17:43;;;;;;;53.63;23.58;;;;;;;;;;6075808;23;20058;-81
2024/01/14 02:20:10;;;;;;;51.58;21.98;;;;;;;;;;6075364;23;20061;-81
2024/01/14 02:22:40;;;;;;;51.42;24.30;;;;;;;;;;6076091;23;20046;-82
2024/01/14 02:25:08;;;;;;;51.65;24.77;;;;;;;;;;6076159;23;20027;-80
2024/01/14 02:27:35;;;;;;;55.90;22.75;;;;;;;;;;6076641;23;20054;-81
2024/01/14 02:30:01;;;;;;;49.35;22.70;;;;;;;;;;6077113;23;20027;-81
2024/01/14 02:32:28;;;;;;;53.45;24.80;;;;;;;;;;6076753;23;20030;-81
2024/01/14 02:34:54;;;;;;;58.40;23.20;;;;;;;;;;6075657;23;20031;-80
2024/01/14 02:37:21;;;;;;;53.72;23.95;;;;;;;;;;6077220;23;20094;-82
2024/01/14 02:39:47;;;;;;;50.33;21.65;;;;;;;;;;6079376;23;20027;-81
2024/01/14 02:42:15;;;;;;;55.17;23.38;;;;;;;;;;6089424;23;20027;-82
2024/01/14 02:44:41;;;;;;;50.45;21.85;;;;;;;;;;6086496;23;20038;-79
2024/01/14 02:47:08;;;;;;;42.95;21.50;;;;;;;;;;6086824;23;20071;-81
2024/01/14 02:49:34;;;;;;;47.72;21.00;;;;;;;;;;6077111;23;20034;-81
2024/01/14 02:52:00;;;;;;;47.88;20.52;;;;;;;;;;6074531;23;20085;-80
2024/01/14 02:54:27;;;;;;;51.50;22.00;;;;;;;;;;6075063;23;20050;-80
2024/01/14 02:56:53;;;;;;;53.85;22.40;;;;;;;;;;6075103;23;20087;-81
2024/01/14 02:59:21;;;;;;;51.38;21.83;;;;;;;;;;6073215;23;20027;-80
2024/01/14 03:01:48;;;;;;;43.70;20.42;;;;;;;;;;6073928;23;20026;-81
2024/01/14 03:04:14;;;;;;;46.33;21.00;;;;;;;;;;6072944;23;20270;-81
2024/01/14 03:06:41;;;;;;;48.72;20.80;;;;;;;;;;6072845;23;20054;-81
2024/01/14 03:09:07;;;;;;;48.72;22.48;;;;;;;;;;6073556;23;20022;-82
2024/01/14 03:11:34;;;;;;;48.97;22.40;;;;;;;;;;6074780;23;20034;-80
2024/01/14 03:14:00;;;;;;;49.67;20.75;;;;;;;;;;6074368;23;20026;-80
2024/01/14 03:16:28;;;;;;;43.35;20.52;;;;;;;;;;6073059;23;20027;-80
2024/01/14 03:18:54;;;;;;;43.33;20.05;;;;;;;;;;6073975;23;20022;-81
2024/01/14 03:21:21;;;;;;;46.60;21.33;;;;;;;;;;6073150;23;20033;-80
2024/01/14 03:23:48;;;;;;;43.25;20.23;;;;;;;;;;6070935;23;20102;-81
2024/01/14 03:26:15;;;;;;;50.20;20.13;;;;;;;;;;6070592;23;20035;-79
2024/01/14 03:28:41;;;;;;;38.80;18.95;;;;;;;;;;6071441;23;20019;-79
2024/01/14 03:31:08;;;;;;;40.25;19.73;;;;;;;;;;6074283;23;20037;-81
2024/01/14 03:33:36;;;;;;;42.95;19.90;;;;;;;;;;6072943;23;20500;-82
2024/01/14 03:36:02;;;;;;;41.00;18.83;;;;;;;;;;6072775;23;20146;-81
2024/01/14 03:38:29;;;;;;;46.15;20.23;;;;;;;;;;6073814;23;20022;-82
2024/01/14 03:40:55;;;;;;;43.85;19.52;;;;;;;;;;6073968;23;20100;-82
2024/01/14 03:43:22;;;;;;;43.35;20.05;;;;;;;;;;6074595;23;20034;-82
2024/01/14 03:45:48;;;;;;;39.63;18.98;;;;;;;;;;6073979;23;20027;-82
2024/01/14 03:48:14;;;;;;;45.20;20.52;;;;;;;;;;6075498;23;20069;-81
2024/01/14 03:50:42;;;;;;;46.03;19.95;;;;;;;;;;6074208;23;20031;-81
2024/01/14 03:53:09;;;;;;;40.30;19.42;;;;;;;;;;6071387;23;20058;-82
2024/01/14 04:00:38;;;;;;;46.00;20.90;;;;;;;;;;6106191;23;19984;-79
2024/01/14 04:03:04;;;;;;;41.17;19.08;;;;;;;;;;6106986;23;20054;-78
2024/01/14 04:05:31;;;;;;;37.83;17.88;;;;;;;;;;6100349;23;20050;-78
2024/01/14 04:07:58;;;;;;;42.00;19.20;;;;;;;;;;6079703;23;20031;-79
2024/01/14 04:10:25;;;;;;;45.25;19.92;;;;;;;;;;6079803;23;20078;-78
2024/01/14 04:12:51;;;;;;;47.72;20.77;;;;;;;;;;6078556;23;20031;-78
2024/01/14 04:15:20;;;;;;;44.00;19.90;;;;;;;;;;6076778;23;20448;-77
2024/01/14 04:17:47;;;;;;;41.55;19.30;;;;;;;;;;6082296;23;20034;-78
2024/01/14 04:20:13;;;;;;;37.42;19.00;;;;;;;;;;6084215;23;20027;-79
2024/01/14 04:22:40;;;;;;;42.47;19.25;;;;;;;;;;6084153;23;20027;-79
2024/01/14 04:25:08;;;;;;;40.83;19.80;;;;;;;;;;6084388;23;20061;-79
2024/01/14 04:27:35;;;;;;;38.00;17.83;;;;;;;;;;6087885;23;20023;-79
2024/01/14 04:30:03;;;;;;;40.40;18.73;;;;;;;;;;6089244;23;20022;-79
2024/01/14 04:32:30;;;;;;;37.80;17.45;;;;;;;;;;6088727;23;20015;-80
2024/01/14 04:34:56;;;;;;;40.53;18.75;;;;;;;;;;6088843;23;20023;-78
2024/01/14 04:37:23;;;;;;;42.28;18.15;;;;;;;;;;6087687;23;20038;-79
2024/01/14 04:39:49;;;;;;;38.58;17.67;;;;;;;;;;6089390;23;20026;-77
2024/01/14 04:42:17;;;;;;;39.97;18.95;;;;;;;;;;6088397;23;20027;-78
2024/01/14 04:44:43;;;;;;;40.03;17.45;;;;;;;;;;6089596;23;20068;-78
2024/01/14 04:47:09;;;;;;;36.75;16.48;;;;;;;;;;6089009;23;20023;-77
2024/01/14 04:49:36;;;;;;;38.10;18.27;;;;;;;;;;6087975;23;20031;-79
2024/01/14 04:52:02;;;;;;;43.38;18.27;;;;;;;;;;6081228;23;20031;-78
2024/01/14 04:54:29;;;;;;;39.72;19.20;;;;;;;;;;6083354;23;20022;-78
2024/01/14 04:56:55;;;;;;;41.78;18.08;;;;;;;;;;6081630;23;20030;-79
2024/01/14 04:59:23;;;;;;;35.45;17.73;;;;;;;;;;6079796;23;20030;-80
2024/01/14 05:01:49;;;;;;;37.40;16.67;;;;;;;;;;6082034;23;20022;-79
2024/01/14 05:04:16;;;;;;;37.40;17.35;;;;;;;;;;6077086;23;20508;-79
2024/01/14 05:06:42;;;;;;;37.83;17.45;;;;;;;;;;6077592;23;20120;-79
2024/01/14 05:09:08;;;;;;;32.95;16.67;;;;;;;;;;6077698;23;20023;-79
2024/01/14 05:11:35;;;;;;;34.75;16.40;;;;;;;;;;6077948;23;20027;-80
2024/01/14 05:14:01;;;;;;;33.42;15.90;;;;;;;;;;6076416;23;20491;-79
2024/01/14 05:16:29;;;;;;;35.22;16.60;;;;;;;;;;6073366;23;20026;-78
2024/01/14 05:18:56;;;;;;;32.60;16.20;;;;;;;;;;6073663;23;20034;-79
2024/01/14 05:21:23;;;;;;;32.45;15.50;;;;;;;;;;6073790;23;20201;-79
2024/01/14 05:23:49;;;;;;;32.17;15.05;;;;;;;;;;6073733;23;20034;-78
2024/01/14 05:26:16;;;;;;;36.10;15.95;;;;;;;;;;6073161;23;20050;-80
2024/01/14 05:28:42;;;;;;;32.05;15.43;;;;;;;;;;6074088;23;20018;-79
2024/01/14 05:31:08;;;;;;;36.80;15.68;;;;;;;;;;6072873;23;20023;-78
2024/01/14 05:33:36;;;;;;;35.72;16.02;;;;;;;;;;6072820;23;20073;-79
2024/01/14 05:36:03;;;;;;;36.58;16.80;;;;;;;;;;6072432;23;20360;-79
2024/01/14 05:38:29;;;;;;;37.40;16.13;;;;;;;;;;6072954;23;20022;-79
2024/01/14 05:40:56;;;;;;;33.95;15.45;;;;;;;;;;6072641;23;20027;-82
2024/01/14 05:43:22;;;;;;;30.65;15.45;;;;;;;;;;6073918;23;20229;-79
2024/01/14 05:45:49;;;;;;;32.72;15.55;;;;;;;;;;6073503;23;20062;-78
2024/01/14 05:48:15;;;;;;;35.60;14.65;;;;;;;;;;6073292;23;20050;-79
2024/01/14 05:50:43;;;;;;;33.35;15.82;;;;;;;;;;6072912;23;20027;-79
2024/01/14 05:53:09;;;;;;;33.85;15.00;;;;;;;;;;6071558;23;20047;-78
2024/01/14 05:55:36;;;;;;;35.70;16.95;;;;;;;;;;6070229;23;20401;-77
2024/01/14 05:58:02;;;;;;;34.88;16.10;;;;;;;;;;6071927;23;20051;-78
2024/01/14 06:00:28;;;;;;;35.90;16.48;;;;;;;;;;6072141;23;20033;-80
2024/01/14 06:02:55;;;;;;;38.55;15.52;;;;;;;;;;6074017;23;20046;-78
2024/01/14 06:05:21;;;;;;;36.33;15.05;;;;;;;;;;6076456;23;20030;-80
2024/01/14 06:07:49;;;;;;;35.28;16.42;;;;;;;;;;6076342;23;20171;-80
2024/01/14 06:10:16;;;;;;;33.03;15.32;;;;;;;;;;6073688;23;20082;-79
2024/01/14 06:12:42;;;;;;;30.40;14.90;;;;;;;;;;6072621;23;20031;-78
2024/01/14 06:15:09;;;;;;;37.45;16.60;;;;;;;;;;6072057;23;20467;-79
2024/01/14 06:17:35;;;;;;;35.40;16.40;;;;;;;;;;6073232;23;20051;-77
2024/01/14 06:20:03;;;;;;;33.47;15.57;;;;;;;;;;6074532;23;20054;-78
2024/01/14 06:22:30;;;;;;;32.80;15.60;;;;;;;;;;6073306;23;20034;-81
2024/01/14 06:24:56;;;;;;;30.80;14.95;;;;;;;;;;6080909;23;20404;-77
2024/01/14 06:27:23;;;;;;;36.22;15.60;;;;;;;;;;6077602;23;20375;-78
2024/01/14 06:29:49;;;;;;;32.88;15.43;;;;;;;;;;6084391;23;20023;-77
2024/01/14 06:32:17;;;;;;;33.67;14.88;;;;;;;;;;6074619;23;20023;-78
2024/01/14 06:34:43;;;;;;;32.05;14.93;;;;;;;;;;6070561;23;20086;-78
2024/01/14 06:37:10;;;;;;;33.90;16.08;;;;;;;;;;6070472;23;20026;-77
2024/01/14 06:39:36;;;;;;;32.92;14.48;;;;;;;;;;6068962;23;20367;-79
2024/01/14 06:42:04;;;;;;;29.23;14.02;;;;;;;;;;6069873;23;20027;-77
2024/01/14 06:44:30;;;;;;;28.90;13.82;;;;;;;;;;6069455;23;20023;-78
2024/01/14 06:46:57;;;;;;;31.77;14.05;;;;;;;;;;6070656;23;20023;-78
2024/01/14 06:49:23;;;;;;;30.60;14.52;;;;;;;;;;6071392;23;20030;-79
2024/01/14 06:51:50;;;;;;;33.30;14.13;;;;;;;;;;6071032;23;20112;-78
2024/01/14 06:54:17;;;;;;;33.53;15.73;;;;;;;;;;6071022;23;20030;-78
2024/01/14 06:56:44;;;;;;;32.38;14.82;;;;;;;;;;6072276;23;20054;-78
2024/01/14 06:59:14;;;;;;;29.45;13.10;;;;;;;;;;6071978;23;20102;-78
2024/01/14 07:01:40;;;;;;;35.50;15.73;;;;;;;;;;6074869;23;20049;-78
2024/01/14 07:04:07;;;;;;;31.05;14.30;;;;;;;;;;6074379;23;20027;-78
2024/01/14 07:06:33;;;;;;;32.25;14.35;;;;;;;;;;6074503;23;20098;-78
2024/01/14 07:09:00;;;;;;;28.52;14.23;;;;;;;;;;6071288;23;20019;-78
2024/01/14 07:11:26;;;;;;;30.27;13.70;;;;;;;;;;6071655;23;20027;-78
2024/01/14 07:13:53;;;;;;;29.27;14.15;;;;;;;;;;6071473;23;20371;-78
2024/01/14 07:16:21;;;;;;;31.90;14.48;;;;;;;;;;6070525;23;20041;-77
2024/01/14 07:18:47;;;;;;;29.42;13.95;;;;;;;;;;6071028;23;20030;-78
2024/01/14 07:21:13;;;;;;;30.65;14.40;;;;;;;;;;6071611;23;20027;-78
2024/01/14 07:23:40;;;;;;;29.25;13.68;;;;;;;;;;6071923;23;20030;-78
2024/01/14 07:26:12;;;;;;;31.20;15.30;;;;;;;;;;6070728;23;20022;-78
2024/01/14 07:28:39;;;;;;;28.08;13.15;;;;;;;;;;6069723;23;20081;-78
2024/01/14 07:31:05;;;;;;;28.73;13.13;;;;;;;;;;6069360;23;20042;-78
2024/01/14 07:33:33;;;;;;;29.13;14.52;;;;;;;;;;6069710;23;20073;-78
2024/01/14 07:35:59;;;;;;;28.90;13.88;;;;;;;;;;6068691;23;20350;-78
2024/01/14 07:38:26;;;;;;;27.15;13.30;;;;;;;;;;6070083;23;20034;-78
2024/01/14 07:40:52;;;;;;;29.38;13.25;;;;;;;;;;6071761;23;20027;-78
2024/01/14 07:43:19;;;;;;;28.58;13.93;;;;;;;;;;6072203;23;20030;-78
2024/01/14 07:45:45;;;;;;;25.63;12.60;;;;;;;;;;6072883;23;20058;-78
2024/01/14 07:48:12;;;;;;;27.52;13.10;;;;;;;;;;6072755;23;20403;-78
2024/01/14 07:50:39;;;;;;;25.15;12.50;;;;;;;;;;6071626;23;20050;-79
2024/01/14 07:53:07;;;;;;;26.98;12.32;;;;;;;;;;6074093;23;20065;-80
2024/01/14 07:55:33;;;;;;;22.83;12.43;;;;;;;;;;6074453;23;20054;-77
2024/01/14 07:58:00;;;;;;;26.00;12.60;;;;;;;;;;6078912;23;20061;-78
2024/01/14 08:00:26;;;;;;;25.55;12.70;;;;;;;;;;6076523;23;20026;-77
2024/01/14 08:02:53;;;;;;;26.83;13.32;;;;;;;;;;6069206;23;20039;-77
2024/01/14 08:05:19;;;;;;;26.23;12.77;;;;;;;;;;6067754;23;20124;-76
2024/01/14 08:07:47;;;;;;;24.20;12.13;;;;;;;;;;6067659;23;20083;-77
2024/01/14 08:10:13;;;;;;;26.10;12.80;;;;;;;;;;6067046;23;20041;-77
2024/01/14 08:12:40;;;;;;;24.60;12.02;;;;;;;;;;6067987;23;20065;-77
2024/01/14 08:15:06;;;;;;;22.50;12.18;;;;;;;;;;6062401;23;20118;-77
2024/01/14 08:17:33;;;;;;;24.70;11.55;;;;;;;;;;6066950;23;20027;-78
2024/01/14 08:20:00;;;;;;;25.70;12.05;;;;;;;;;;6065622;23;20099;-77
2024/01/14 08:22:41;;;;;;;27.27;12.35;;;;;;;;;;6071825;23;20200;-78
2024/01/14 08:25:13;;;;;;;26.30;12.82;;;;;;;;;;6067330;23;20053;-78
2024/01/14 08:27:44;;;;;;;23.17;11.23;;;;;;;;;;6069447;23;20019;-78
2024/01/14 08:30:23;;;;;;;24.38;11.88;;;;;;;;;;6068871;23;20015;-78
2024/01/14 08:32:53;;;;;;;24.25;11.27;;;;;;;;;;6070444;23;20019;-78
2024/01/14 08:35:23;;;;;;;25.80;11.63;;;;;;;;;;6068967;23;20049;-77
2024/01/14 08:37:50;;;;;;;25.15;11.82;;;;;;;;;;6068346;23;20050;-78
2024/01/14 08:40:18;;;;;;;24.88;12.52;;;;;;;;;;6070406;23;20023;-78
2024/01/14 08:42:47;;;;;;;25.00;11.93;;;;;;;;;;6067546;23;20029;-78
2024/01/14 08:45:17;;;;;;;20.90;10.93;;;;;;;;;;6067591;23;20025;-78
2024/01/14 08:47:45;;;;;;;23.42;11.70;;;;;;;;;;6068480;23;20034;-78
2024/01/14 08:50:15;;;;;;;21.33;11.32;;;;;;;;;;6065693;23;20061;-77
2024/01/14 08:52:48;;;;;;;21.27;10.85;;;;;;;;;;6065065;23;20789;-77
2024/01/14 08:55:23;;;;;;;;;;;;;;;;;;6065735;23;20033;-77
2024/01/14 08:57:57;;;;;;;20.98;10.38;;;;;;;;;;6066107;23;19917;-78
2024/01/14 09:00:25;;;;;;;22.65;10.90;;;;;;;;;;6064675;23;20102;-77
2024/01/14 09:03:34;;;;;;;20.50;11.88;;;;;;;;;;6067168;23;20023;-78
2024/01/14 09:06:10;;;;;;;21.70;11.23;;;;;;;;;;6066237;23;20133;-78
2024/01/14 09:08:51;;;;;;;22.73;10.98;;;;;;;;;;6067085;23;20019;-78
2024/01/14 09:11:29;;;;;;;18.27;10.18;;;;;;;;;;6066746;23;20026;-79
2024/01/14 09:14:08;;;;;;;21.95;10.30;;;;;;;;;;6068928;23;20038;-76
2024/01/14 09:16:49;;;;;;;;;;;;;;;;;;;;;
2024/01/14 09:19:19;;;;;;;16.55;9.68;;;;;;;;;;6073386;23;20023;-77
2024/01/14 09:21:58;;;;;;;;;;;;;;;;;;;;;
2024/01/14 09:24:45;;;;;;;19.80;9.80;;;;;;;;;;6070305;23;20019;-78
2024/01/14 09:27:14;;;;;;;18.98;9.93;;;;;;;;;;6067810;23;20023;-78
2024/01/14 09:29:42;;;;;;;20.05;10.38;;;;;;;;;;6066979;23;20085;-77
2024/01/14 09:32:09;;;;;;;18.55;9.20;;;;;;;;;;6072465;23;20018;-80
2024/01/14 09:34:35;;;;;;;19.75;9.65;;;;;;;;;;6072036;23;20030;-78
2024/01/14 09:37:01;;;;;;;19.27;9.98;;;;;;;;;;6071669;23;20029;-77
2024/01/14 09:39:31;;;;;;;16.63;9.18;;;;;;;;;;6071221;23;20037;-78
2024/01/14 09:42:14;;;;;;;18.95;9.27;;;;;;;;;;6074386;23;20106;-78
2024/01/14 09:44:42;;;;;;;19.85;10.02;;;;;;;;;;6072878;23;20010;-75
2024/01/14 09:47:09;;;;;;;21.20;10.65;;;;;;;;;;6071840;23;20034;-76
2024/01/14 09:49:39;;;;;;;24.55;11.07;;;;;;;;;;6074251;23;20082;-76
2024/01/14 09:52:06;;;;;;;21.30;10.25;;;;;;;;;;6073056;23;20078;-76
2024/01/14 09:54:33;;;;;;;19.98;9.80;;;;;;;;;;6073207;23;20079;-76
2024/01/14 09:57:04;;;;;;;19.98;10.80;;;;;;;;;;6072225;23;20057;-78
2024/01/14 09:59:33;;;;;;;25.20;10.75;;;;;;;;;;6073915;23;20102;-77
2024/01/14 10:02:02;;;;;;;20.25;9.68;;;;;;;;;;6081212;23;20034;-82
2024/01/14 10:04:29;;;;;;;20.33;10.10;;;;;;;;;;6103234;23;20082;-81
2024/01/14 10:06:56;;;;;;;19.92;9.80;;;;;;;;;;6101663;23;20366;-80
2024/01/14 10:09:23;;;;;;;18.58;10.43;;;;;;;;;;6103531;23;20030;-81
2024/01/14 10:11:50;;;;;;;17.65;9.23;;;;;;;;;;6094582;23;20023;-81
2024/01/14 10:14:17;;;;;;;20.40;10.48;;;;;;;;;;6075519;23;20062;-80
2024/01/14 10:16:43;;;;;;;22.63;10.82;;;;;;;;;;6075359;23;20093;-81
2024/01/14 10:19:11;;;;;;;21.77;10.90;;;;;;;;;;6074770;23;20034;-81
2024/01/14 10:21:37;;;;;;;16.50;9.45;;;;;;;;;;6075191;23;20451;-81
2024/01/14 10:24:04;;;;;;;16.88;9.70;;;;;;;;;;6075628;23;20046;-81
2024/01/14 10:26:31;;;;;;;16.20;9.65;;;;;;;;;;6074994;23;20057;-84
2024/01/14 10:29:01;;;;;;;16.05;9.45;;;;;;;;;;6076252;23;20073;-82
2024/01/14 10:31:27;;;;;;;18.40;9.88;;;;;;;;;;6076960;23;20030;-83
2024/01/14 10:33:54;;;;;;;20.23;9.70;;;;;;;;;;6077962;23;20361;-83
2024/01/14 10:36:21;;;;;;;17.20;9.13;;;;;;;;;;6073518;23;20027;-85
2024/01/14 10:38:48;;;;;;;16.45;9.23;;;;;;;;;;6081485;23;20049;-85
2024/01/14 10:41:14;;;;;;;19.60;9.50;;;;;;;;;;6080269;23;20030;-82
2024/01/14 10:43:40;;;;;;;18.08;9.60;;;;;;;;;;6080048;23;20031;-86
2024/01/14 10:46:07;;;;;;;17.27;9.23;;;;;;;;;;6084772;23;20037;-82
2024/01/14 10:48:36;;;;;;;21.88;10.15;;;;;;;;;;6077209;23;20038;-81
2024/01/14 10:51:03;;;;;;;17.60;8.43;;;;;;;;;;6075553;23;20034;-81
2024/01/14 10:53:40;;;;;;;18.20;9.82;;;;;;;;;;6078309;23;20030;-81
2024/01/14 10:56:09;;;;;;;14.57;8.18;;;;;;;;;;6074343;23;20027;-81
2024/01/14 10:58:37;;;;;;;17.23;9.60;;;;;;;;;;6076717;23;20023;-82
2024/01/14 11:01:07;;;;;;;18.30;9.90;;;;;;;;;;6081699;23;20056;-81
2024/01/14 11:03:34;;;;;;;19.42;9.80;;;;;;;;;;6084473;23;20035;-82
2024/01/14 11:06:00;;;;;;;18.05;9.82;;;;;;;;;;6087023;23;20464;-82
2024/01/14 11:08:27;;;;;;;17.05;9.15;;;;;;;;;;6080700;23;20027;-83
2024/01/14 11:10:56;;;;;;;18.88;9.40;;;;;;;;;;6074378;23;20019;-82
2024/01/14 11:13:24;;;;;;;16.63;9.20;;;;;;;;;;6075404;23;20035;-81
2024/01/14 11:15:53;;;;;;;15.13;8.88;;;;;;;;;;6074605;23;20033;-82
2024/01/14 11:18:22;;;;;;;15.00;8.45;;;;;;;;;;6073637;23;20027;-82
2024/01/14 11:20:54;;;;;;;17.73;9.48;;;;;;;;;;6073636;23;20074;-81
2024/01/14 11:23:21;;;;;;;16.67;9.20;;;;;;;;;;6074680;23;20409;-81
2024/01/14 11:25:49;;;;;;;17.42;9.40;;;;;;;;;;6074175;23;20048;-82
2024/01/14 11:28:17;;;;;;;17.83;9.15;;;;;;;;;;6073995;23;20058;-82
2024/01/14 11:30:50;;;;;;;16.30;8.63;;;;;;;;;;6074349;23;20109;-83
2024/01/14 11:33:38;;;;;;;15.73;8.68;;;;;;;;;;6073823;23;20102;-81
2024/01/14 11:36:06;;;;;;;17.00;9.10;;;;;;;;;;6070345;23;20105;-82
2024/01/14 11:38:32;;;;;;;18.75;8.25;;;;;;;;;;6072523;23;20034;-82
2024/01/14 11:40:59;;;;;;;16.90;8.98;;;;;;;;;;6072638;23;20023;-82
2024/01/14 11:43:28;;;;;;;15.30;8.07;;;;;;;;;;6073180;23;20074;-82
2024/01/14 11:45:54;;;;;;;14.30;8.45;;;;;;;;;;6074537;23;20372;-82
2024/01/14 11:48:21;;;;;;;16.05;8.05;;;;;;;;;;6073755;23;20348;-83
2024/01/14 11:50:50;;;;;;;16.55;9.05;;;;;;;;;;6073844;23;20058;-83
2024/01/14 11:53:17;;;;;;;13.98;8.35;;;;;;;;;;6076964;23;20022;-83
2024/01/14 11:55:44;;;;;;;13.23;7.40;;;;;;;;;;6071219;23;20023;-83
2024/01/14 11:58:10;;;;;;;15.25;8.23;;;;;;;;;;6071421;23;20026;-82
2024/01/14 12:00:38;;;;;;;16.08;10.13;;;;;;;;;;6073152;23;20022;-82
2024/01/14 12:03:07;;;;;;;13.38;7.78;;;;;;;;;;6073209;23;20022;-82
2024/01/14 12:05:33;;;;;;;14.93;8.32;;;;;;;;;;6072485;23;20031;-82
2024/01/14 12:08:00;;;;;;;15.13;7.93;;;;;;;;;;6074001;23;20027;-81
2024/01/14 12:10:28;;;;;;;13.18;8.60;;;;;;;;;;6068914;23;20066;-82
2024/01/14 12:12:55;;;;;;;13.07;7.22;;;;;;;;;;6072183;23;20526;-80
2024/01/14 12:15:21;;;;;;;11.85;6.97;;;;;;;;;;6073542;23;20055;-81
2024/01/14 12:17:55;;;;;;;11.77;7.45;;;;;;;;;;6081769;23;20022;-81
2024/01/14 12:20:22;;;;;;;10.98;6.63;;;;;;;;;;6071801;23;20047;-82
2024/01/14 12:22:55;;;;;;;11.23;6.65;;;;;;;;;;6071795;23;20029;-80
2024/01/14 12:25:21;;;;;;;12.02;7.40;;;;;;;;;;6071971;23;20396;-81
2024/01/14 12:27:47;;;;;;;11.77;7.15;;;;;;;;;;6072876;23;20050;-82
2024/01/14 12:30:23;;;;;;;10.93;6.90;;;;;;;;;;6073230;23;20073;-81
2024/01/14 12:32:50;;;;;;;12.15;7.25;;;;;;;;;;6072421;23;20176;-82
2024/01/14 12:35:17;;;;;;;11.32;7.13;;;;;;;;;;6072734;23;20049;-82
2024/01/14 12:37:44;;;;;;;13.48;7.25;;;;;;;;;;6072613;23;20095;-82
2024/01/14 12:40:11;;;;;;;13.07;7.57;;;;;;;;;;6072580;23;20037;-82
2024/01/14 12:42:37;;;;;;;15.32;9.35;;;;;;;;;;6077717;23;20034;-81
2024/01/14 12:45:04;;;;;;;13.43;7.50;;;;;;;;;;6077878;23;20456;-81
2024/01/14 12:47:33;;;;;;;14.63;8.02;;;;;;;;;;6075765;23;20027;-82
2024/01/14 12:50:00;;;;;;;11.82;7.53;;;;;;;;;;6071698;23;20049;-82
2024/01/14 12:52:30;;;;;;;13.52;7.75;;;;;;;;;;6076557;23;20027;-82
2024/01/14 12:54:57;;;;;;;12.13;7.50;;;;;;;;;;6074069;23;20046;-82
2024/01/14 12:57:23;;;;;;;11.65;7.88;;;;;;;;;;6073811;23;20403;-82
2024/01/14 12:59:50;;;;;;;10.48;7.03;;;;;;;;;;6074532;23;20046;-81
2024/01/14 13:02:16;;;;;;;13.05;7.60;;;;;;;;;;6074107;23;20026;-82
2024/01/14 13:04:42;;;;;;;13.40;7.47;;;;;;;;;;6073479;23;20043;-81
2024/01/14 13:07:09;;;;;;;12.82;7.55;;;;;;;;;;6078373;23;20499;-82
2024/01/14 13:09:36;;;;;;;13.13;7.93;;;;;;;;;;6084389;23;20033;-80
2024/01/14 13:12:03;;;;;;;13.50;7.60;;;;;;;;;;6086278;23;20051;-81
2024/01/14 13:14:30;;;;;;;11.73;7.22;;;;;;;;;;6080302;23;20041;-81
2024/01/14 13:16:56;;;;;;;12.05;7.25;;;;;;;;;;6075264;23;20027;-80
2024/01/14 13:19:23;;;;;;;16.35;7.78;;;;;;;;;;6075509;23;20065;-81
2024/01/14 13:21:49;;;;;;;13.20;7.55;;;;;;;;;;6074767;23;20030;-80
2024/01/14 13:24:16;;;;;;;15.40;8.27;;;;;;;;;;6075150;23;20368;-81
2024/01/14 13:26:43;;;;;;;14.70;8.32;;;;;;;;;;6073393;23;20042;-81
2024/01/14 13:29:10;;;;;;;15.15;8.48;;;;;;;;;;6072733;23;20054;-80
2024/01/14 13:31:38;;;;;;;14.65;8.95;;;;;;;;;;6073009;23;20025;-81
2024/01/14 13:34:05;;;;;;;15.98;8.27;;;;;;;;;;6072468;23;20029;-82
2024/01/14 13:36:31;;;;;;;12.63;7.82;;;;;;;;;;6072029;23;20050;-80
2024/01/14 13:39:01;;;;;;;14.32;7.82;;;;;;;;;;6079358;23;20065;-80
2024/01/14 13:41:27;;;;;;;15.52;8.50;;;;;;;;;;6076640;23;20026;-81
2024/01/14 13:43:55;;;;;;;14.82;8.10;;;;;;;;;;6073293;23;20073;-81
2024/01/14 13:46:21;;;;;;;15.30;8.48;;;;;;;;;;6069913;23;20058;-81
2024/01/14 13:48:47;;;;;;;15.95;8.98;;;;;;;;;;6071400;23;20082;-81
2024/01/14 13:51:14;;;;;;;15.85;8.75;;;;;;;;;;6072316;23;20055;-81
2024/01/14 13:53:43;;;;;;;15.40;8.13;;;;;;;;;;6078427;23;20058;-82
2024/01/14 13:56:10;;;;;;;15.95;9.25;;;;;;;;;;6076210;23;20033;-81
2024/01/14 13:58:49;;;;;;;17.45;8.85;;;;;;;;;;6079763;23;20027;-82
2024/01/14 14:01:17;;;;;;;16.13;8.80;;;;;;;;;;6078691;23;20029;-83
2024/01/14 14:03:44;;;;;;;14.48;8.38;;;;;;;;;;6080067;23;20110;-82
2024/01/14 14:06:12;;;;;;;14.98;9.02;;;;;;;;;;6072982;23;20355;-82
2024/01/14 14:08:38;;;;;;;13.93;8.20;;;;;;;;;;6074379;23;20502;-82
2024/01/14 14:11:05;;;;;;;16.75;9.05;;;;;;;;;;6073928;23;20099;-81
2024/01/14 14:13:31;;;;;;;15.73;9.30;;;;;;;;;;6074051;23;20027;-82
2024/01/14 14:16:00;;;;;;;18.98;9.60;;;;;;;;;;6074274;23;20034;-82
2024/01/14 14:18:28;;;;;;;14.70;8.85;;;;;;;;;;6074763;23;20058;-82
2024/01/14 14:20:54;;;;;;;14.77;9.45;;;;;;;;;;6075225;23;20029;-82
2024/01/14 14:23:20;;;;;;;17.85;9.05;;;;;;;;;;6074829;23;20127;-82
2024/01/14 14:25:47;;;;;;;17.23;9.48;;;;;;;;;;6074658;23;20479;-82
2024/01/14 14:28:13;;;;;;;17.77;9.23;;;;;;;;;;6075543;23;20125;-82
2024/01/14 14:30:39;;;;;;;15.52;9.20;;;;;;;;;;6076277;23;20026;-81